Time;durP1;ratioP1;P1;durP2;ratioP2;P2;SDS_P1;SDS_P2;PMS_P1;PMS_P2;Temp;Humidity;BMP_temperature;BMP_pressure;BME280_temperature;BME280_humidity;BME280_pressure;Samples;Min_cycle;Max_cycle;Signal;HPM_P1;HPM_P2
2022/02/28 00:00:27;;;;;;;7.43;5.88;;;;;;;-3.94;100.00;94042.00;2091828;28;20510;-81
2022/02/28 00:01:28;;;;;;;7.18;5.85;;;;;;;-3.96;100.00;94036.28;2087554;28;20079;-81
2022/02/28 00:02:29;;;;;;;7.82;5.57;;;;;;;-4.01;100.00;94036.44;2081645;28;20014;-82
2022/02/28 00:03:31;;;;;;;9.30;5.97;;;;;;;-4.03;100.00;94041.97;2092394;28;20468;-81
2022/02/28 00:04:32;;;;;;;6.68;5.18;;;;;;;-4.04;100.00;94037.78;2097749;28;20047;-82
2022/02/28 00:05:34;;;;;;;7.28;5.40;;;;;;;-4.05;100.00;94039.63;2089636;28;20128;-82
2022/02/28 00:06:34;;;;;;;9.15;6.25;;;;;;;-4.07;100.00;94038.41;2081489;28;20021;-82
2022/02/28 00:07:35;;;;;;;9.13;6.40;;;;;;;-4.01;100.00;94039.81;2081481;28;20021;-79
2022/02/28 00:08:36;;;;;;;9.00;5.82;;;;;;;-4.06;100.00;94040.72;2077700;28;20022;-82
2022/02/28 00:09:38;;;;;;;8.25;5.68;;;;;;;-4.09;100.00;94045.75;2085143;28;20108;-80
2022/02/28 00:10:39;;;;;;;7.75;5.97;;;;;;;-4.11;100.00;94053.91;2094009;28;20023;-82
2022/02/28 00:11:40;;;;;;;9.93;6.25;;;;;;;-3.97;100.00;94039.97;2085159;28;20547;-81
2022/02/28 00:12:42;;;;;;;8.52;6.18;;;;;;;-3.99;100.00;94047.34;2093795;28;20115;-79
2022/02/28 00:13:43;;;;;;;8.50;6.43;;;;;;;-4.05;100.00;94046.69;2085580;28;20060;-81
2022/02/28 00:14:44;;;;;;;7.68;6.20;;;;;;;-4.12;100.00;94047.16;2089722;28;20020;-81
2022/02/28 00:15:45;;;;;;;9.52;6.22;;;;;;;-4.22;100.00;94050.00;2094310;28;20131;-80
2022/02/28 00:16:46;;;;;;;8.10;5.75;;;;;;;-4.16;100.00;94048.81;2089648;28;20055;-82
2022/02/28 00:17:47;;;;;;;9.82;6.20;;;;;;;-4.17;100.00;94051.69;2097973;28;20096;-82
2022/02/28 00:18:48;;;;;;;7.45;5.88;;;;;;;-4.16;100.00;94050.66;2097964;28;20370;-82
2022/02/28 00:19:49;;;;;;;8.18;6.22;;;;;;;-4.19;100.00;94046.03;2088759;28;20100;-82
2022/02/28 00:20:50;;;;;;;9.45;6.80;;;;;;;-4.24;100.00;94046.16;2089729;28;20024;-82
2022/02/28 00:21:52;;;;;;;6.68;5.38;;;;;;;-4.20;100.00;94047.09;2089725;28;20033;-80
2022/02/28 00:22:53;;;;;;;8.20;6.57;;;;;;;-4.08;100.00;94040.25;2089562;28;20145;-82
2022/02/28 00:23:54;;;;;;;9.82;6.75;;;;;;;-3.93;100.00;94040.91;2081437;28;20032;-82
2022/02/28 00:24:54;;;;;;;9.25;6.38;;;;;;;-3.92;100.00;94034.63;2089570;28;20044;-81
2022/02/28 00:25:56;;;;;;;9.05;5.97;;;;;;;-3.95;100.00;94037.81;2097752;28;20036;-81
2022/02/28 00:26:57;;;;;;;8.00;5.75;;;;;;;-3.99;100.00;94040.28;2089473;28;20025;-81
2022/02/28 00:28:00;;;;;;;8.45;6.32;;;;;;;-4.07;100.00;94046.25;2080739;28;20049;-80
2022/02/28 00:29:01;;;;;;;7.75;5.65;;;;;;;-4.12;100.00;94044.53;2098244;28;20024;-81
2022/02/28 00:30:06;;;;;;;9.32;5.82;;;;;;;-4.25;100.00;94042.00;2097865;28;20057;-82
2022/02/28 00:31:07;;;;;;;7.63;6.35;;;;;;;-4.34;100.00;94039.34;2089913;28;20021;-79
2022/02/28 00:32:08;;;;;;;9.60;6.45;;;;;;;-4.39;100.00;94035.03;2097672;28;20081;-82
2022/02/28 00:33:09;;;;;;;8.18;5.95;;;;;;;-4.43;100.00;94033.31;2097629;28;20024;-80
2022/02/28 00:34:10;;;;;;;7.07;6.03;;;;;;;-4.48;100.00;94038.63;2097710;28;20492;-80
2022/02/28 00:35:11;;;;;;;8.98;6.05;;;;;;;-4.46;100.00;94036.53;2097808;28;20032;-80
2022/02/28 00:36:12;;;;;;;8.00;5.90;;;;;;;-4.43;100.00;94033.31;2081325;28;20029;-80
2022/02/28 00:37:13;;;;;;;7.28;6.32;;;;;;;-4.43;100.00;94028.09;2072957;28;20021;-83
2022/02/28 00:38:14;;;;;;;7.38;5.88;;;;;;;-4.57;100.00;94023.69;2081369;28;20057;-81
2022/02/28 00:39:15;;;;;;;8.50;6.50;;;;;;;-4.58;100.00;94024.00;2089416;28;20530;-81
2022/02/28 00:40:16;;;;;;;7.95;6.18;;;;;;;-4.57;100.00;94031.53;2089470;28;20024;-80
2022/02/28 00:41:17;;;;;;;10.38;6.18;;;;;;;-4.39;100.00;94029.81;2089349;28;20021;-80
2022/02/28 00:42:18;;;;;;;9.13;5.57;;;;;;;-4.48;100.00;94033.41;2089620;28;20051;-79
2022/02/28 00:43:19;;;;;;;8.93;6.25;;;;;;;-4.54;100.00;94026.81;2097745;28;20039;-81
2022/02/28 00:44:20;;;;;;;8.45;6.18;;;;;;;-4.66;100.00;94029.94;2089561;28;20442;-81
2022/02/28 00:45:21;;;;;;;9.02;6.80;;;;;;;-4.74;100.00;94028.84;2083737;28;20048;-82
2022/02/28 00:46:22;;;;;;;8.95;6.30;;;;;;;-4.50;100.00;94032.97;2085085;28;20029;-82
2022/02/28 00:47:23;;;;;;;8.60;6.05;;;;;;;-4.52;100.00;94032.47;2089322;28;20028;-82
2022/02/28 00:48:24;;;;;;;6.75;5.47;;;;;;;-4.45;100.00;94032.84;2081165;28;20081;-80
2022/02/28 00:49:25;;;;;;;8.80;6.30;;;;;;;-4.58;100.00;94027.38;2097521;28;20017;-81
2022/02/28 00:50:26;;;;;;;10.68;6.22;;;;;;;-4.70;100.00;94024.53;2105947;28;20039;-82
2022/02/28 00:51:27;;;;;;;8.93;5.90;;;;;;;-4.74;100.00;94031.44;2088252;28;20123;-82
2022/02/28 00:52:28;;;;;;;7.90;6.20;;;;;;;-4.69;100.00;94028.72;2089401;28;20486;-82
2022/02/28 00:53:29;;;;;;;8.10;7.07;;;;;;;-4.77;100.00;94037.25;2089644;28;20029;-81
2022/02/28 00:54:30;;;;;;;9.85;6.80;;;;;;;-4.81;100.00;94031.84;2105926;28;20495;-81
2022/02/28 00:55:31;;;;;;;8.82;6.40;;;;;;;-4.79;100.00;94033.38;2095018;28;20024;-80
2022/02/28 00:56:32;;;;;;;11.23;6.65;;;;;;;-4.78;100.00;94033.09;2080968;28;20028;-81
2022/02/28 00:57:33;;;;;;;10.05;6.95;;;;;;;-4.76;100.00;94032.78;2085111;28;20024;-82
2022/02/28 00:58:34;;;;;;;9.73;6.72;;;;;;;-4.81;100.00;94028.47;2089397;28;20027;-82
2022/02/28 00:59:35;;;;;;;7.72;6.55;;;;;;;-4.87;100.00;94027.81;2081272;28;20025;-79
2022/02/28 01:00:37;;;;;;;9.50;6.45;;;;;;;-4.93;100.00;94033.44;2094229;28;20075;-83
2022/02/28 01:01:39;;;;;;;10.27;6.47;;;;;;;-4.95;100.00;94020.72;2097380;28;20069;-81
2022/02/28 01:02:40;;;;;;;9.70;6.45;;;;;;;-4.87;100.00;94027.06;2097943;28;20104;-82
2022/02/28 01:03:42;;;;;;;7.40;6.13;;;;;;;-4.91;100.00;94039.91;2097496;28;20016;-82
2022/02/28 01:04:44;;;;;;;8.10;6.30;;;;;;;-4.86;100.00;94033.81;2089367;28;20017;-82
2022/02/28 01:05:44;;;;;;;11.23;6.10;;;;;;;-4.77;100.00;94026.81;2088963;28;20020;-82
2022/02/28 01:06:46;;;;;;;7.80;6.65;;;;;;;-4.92;100.00;94032.38;2072730;28;20063;-80
2022/02/28 01:07:48;;;;;;;9.88;6.38;;;;;;;-4.87;100.00;94025.22;2085861;28;20099;-80
2022/02/28 01:08:49;;;;;;;7.60;5.97;;;;;;;-4.66;100.00;94029.94;2097578;28;20803;-81
2022/02/28 01:09:50;;;;;;;7.88;5.97;;;;;;;-4.72;100.00;94024.09;2089157;28;20027;-82
2022/02/28 01:10:51;;;;;;;9.02;5.78;;;;;;;-4.84;100.00;94029.81;2097380;28;20032;-82
2022/02/28 01:11:53;;;;;;;8.38;6.03;;;;;;;-4.90;100.00;94033.63;2097413;28;20176;-80
2022/02/28 01:12:54;;;;;;;9.25;6.25;;;;;;;-4.69;100.00;94027.94;2097507;28;20039;-81
2022/02/28 01:13:55;;;;;;;7.78;5.82;;;;;;;-4.80;100.00;94027.41;2097405;28;20059;-80
2022/02/28 01:14:56;;;;;;;9.07;6.45;;;;;;;-4.93;100.00;94029.00;2097577;28;20332;-80
2022/02/28 01:15:58;;;;;;;8.43;5.90;;;;;;;-4.93;100.00;94034.19;2105458;28;20098;-82
2022/02/28 01:16:59;;;;;;;8.85;5.95;;;;;;;-5.07;100.00;94033.50;2097523;28;20089;-80
2022/02/28 01:18:00;;;;;;;7.93;5.80;;;;;;;-4.89;100.00;94029.94;2097315;28;20024;-79
2022/02/28 01:19:02;;;;;;;9.23;5.60;;;;;;;-4.87;100.00;94024.44;2097395;28;20028;-80
2022/02/28 01:20:05;;;;;;;7.07;5.68;;;;;;;-4.88;100.00;94030.72;2098610;28;20046;-82
2022/02/28 01:21:06;;;;;;;8.95;6.47;;;;;;;-4.93;100.00;94021.16;2089175;28;20517;-82
2022/02/28 01:22:10;;;;;;;6.78;5.38;;;;;;;-4.97;100.00;94024.66;2072973;28;20025;-80
2022/02/28 01:23:11;;;;;;;6.68;5.88;;;;;;;-4.90;100.00;94020.59;2081838;28;20025;-80
2022/02/28 01:24:12;;;;;;;7.50;5.82;;;;;;;-4.83;100.00;94018.34;2089212;28;20108;-81
2022/02/28 01:25:13;;;;;;;9.75;6.35;;;;;;;-5.00;100.00;94022.63;2088995;28;20459;-82
2022/02/28 01:26:14;;;;;;;7.28;5.40;;;;;;;-5.14;100.00;94025.28;2093080;28;20704;-79
2022/02/28 01:27:15;;;;;;;8.80;5.40;;;;;;;-5.10;100.00;94023.63;2085848;28;20033;-79
2022/02/28 01:28:16;;;;;;;7.03;6.20;;;;;;;-4.93;100.00;94018.56;2080601;28;20021;-82
2022/02/28 01:29:17;;;;;;;9.05;6.35;;;;;;;-5.09;100.00;94015.56;2080911;28;20021;-81
2022/02/28 01:30:18;;;;;;;7.60;5.97;;;;;;;-5.13;100.00;94008.63;2089214;28;20024;-81
2022/02/28 01:31:19;;;;;;;8.73;6.57;;;;;;;-5.30;100.00;94016.28;2088925;28;20067;-80
2022/02/28 01:32:20;;;;;;;7.30;5.82;;;;;;;-5.32;100.00;94013.97;2097197;28;20013;-82
2022/02/28 01:33:21;;;;;;;10.90;6.20;;;;;;;-5.20;100.00;94016.06;2097179;28;20025;-80
2022/02/28 01:34:22;;;;;;;9.48;6.07;;;;;;;-5.29;100.00;94015.97;2105615;28;20103;-81
2022/02/28 01:35:24;;;;;;;10.30;6.45;;;;;;;-5.33;100.00;94010.59;2097425;28;20687;-82
2022/02/28 01:36:25;;;;;;;8.73;5.85;;;;;;;-5.08;100.00;94008.50;2097249;28;20020;-80
2022/02/28 01:37:26;;;;;;;8.85;6.20;;;;;;;-5.21;100.00;94017.13;2095450;28;20118;-79
2022/02/28 01:38:28;;;;;;;10.35;6.57;;;;;;;-5.24;100.00;94018.47;2089126;28;20120;-80
2022/02/28 01:39:29;;;;;;;7.95;6.13;;;;;;;-5.39;100.00;94016.97;2080948;28;20037;-80
2022/02/28 01:40:30;;;;;;;7.57;5.80;;;;;;;-5.46;100.00;94018.44;2089035;28;20036;-81
2022/02/28 01:41:31;;;;;;;7.53;5.97;;;;;;;-5.37;100.00;94020.03;2097299;28;20043;-82
2022/02/28 01:42:32;;;;;;;8.82;6.20;;;;;;;-5.38;100.00;94013.31;2095867;28;20020;-82
2022/02/28 01:43:34;;;;;;;7.78;6.10;;;;;;;-5.31;100.00;94015.53;2089131;28;20033;-80
2022/02/28 01:44:34;;;;;;;7.80;5.47;;;;;;;-5.34;100.00;94018.69;2092060;28;20021;-81
2022/02/28 01:45:36;;;;;;;9.50;6.55;;;;;;;-5.37;100.00;94022.66;2097205;28;20051;-80
2022/02/28 01:46:56;;;;;;;7.65;5.95;;;;;;;-5.42;100.00;94032.41;2097370;28;20440;-82
2022/02/28 01:47:57;;;;;;;7.78;5.80;;;;;;;-5.36;100.00;94026.78;2091646;28;20028;-81
2022/02/28 01:48:58;;;;;;;9.75;6.55;;;;;;;-5.42;100.00;94027.97;2089022;28;20021;-82
2022/02/28 01:49:59;;;;;;;9.48;5.32;;;;;;;-5.37;100.00;94024.50;2089064;28;20636;-80
2022/02/28 01:51:00;;;;;;;10.25;6.80;;;;;;;-5.29;100.00;94031.63;2089023;28;20112;-81
2022/02/28 01:52:02;;;;;;;11.80;6.28;;;;;;;-5.30;100.00;94026.72;2083426;28;20045;-80
2022/02/28 01:53:03;;;;;;;8.32;6.00;;;;;;;-5.36;100.00;94036.44;2089159;28;20526;-83
2022/02/28 01:54:06;;;;;;;7.65;6.07;;;;;;;-5.44;100.00;94024.91;2088900;28;20025;-82
2022/02/28 01:55:12;;;;;;;9.18;6.10;;;;;;;-5.46;100.00;94028.84;2089069;28;20035;-82
2022/02/28 01:56:13;;;;;;;8.07;5.88;;;;;;;-5.37;100.00;94022.66;2077435;28;20022;-81
2022/02/28 01:57:14;;;;;;;8.43;5.72;;;;;;;-5.33;100.00;94030.66;2073839;28;20083;-79
2022/02/28 01:58:15;;;;;;;9.27;5.95;;;;;;;-5.18;100.00;94022.53;2088951;28;20394;-80
2022/02/28 01:59:16;;;;;;;9.48;5.95;;;;;;;-5.16;100.00;94032.66;2088792;28;20021;-80
2022/02/28 02:00:21;;;;;;;7.05;5.72;;;;;;;-5.26;100.00;94031.03;2088974;28;20048;-80
2022/02/28 02:01:22;;;;;;;9.77;6.30;;;;;;;-5.37;100.00;94025.25;2097018;28;20020;-81
2022/02/28 02:02:23;;;;;;;6.75;5.68;;;;;;;-5.44;100.00;94029.34;2088665;28;20021;-82
2022/02/28 02:03:25;;;;;;;11.80;6.22;;;;;;;-5.50;100.00;94028.66;2097328;28;20489;-82
2022/02/28 02:04:26;;;;;;;8.43;6.07;;;;;;;-5.38;100.00;94021.13;2088767;28;20028;-81
2022/02/28 02:05:28;;;;;;;9.52;5.82;;;;;;;-5.42;100.00;94022.00;2080627;28;20625;-80
2022/02/28 02:06:30;;;;;;;11.02;6.70;;;;;;;-5.54;100.00;94027.69;2089382;28;20544;-82
2022/02/28 02:07:31;;;;;;;7.85;6.32;;;;;;;-5.64;100.00;94027.91;2090191;28;20021;-80
2022/02/28 02:08:32;;;;;;;10.40;6.57;;;;;;;-5.47;100.00;94025.47;2080852;28;20079;-81
2022/02/28 02:11:35;;;;;;;9.93;5.50;;;;;;;-5.59;100.00;94028.56;2147863;27;20179;-81
2022/02/28 02:12:38;;;;;;;7.93;5.72;;;;;;;-5.62;100.00;94023.97;2121044;28;20127;-80
2022/02/28 02:13:40;;;;;;;7.63;6.05;;;;;;;-5.77;100.00;94024.25;2104727;28;20062;-82
2022/02/28 02:14:41;;;;;;;7.35;5.50;;;;;;;-5.62;100.00;94028.38;2113175;27;20050;-82
2022/02/28 02:15:42;;;;;;;7.85;6.00;;;;;;;-5.68;100.00;94026.94;2121279;28;20159;-81
2022/02/28 02:16:43;;;;;;;9.90;6.63;;;;;;;-5.50;100.00;94026.06;2104258;28;20641;-80
2022/02/28 02:17:44;;;;;;;7.15;5.78;;;;;;;-5.48;100.00;94031.00;2104548;28;20597;-82
2022/02/28 02:18:45;;;;;;;7.60;5.70;;;;;;;-5.63;100.00;94032.81;2104192;28;20063;-81
2022/02/28 02:19:47;;;;;;;7.53;5.80;;;;;;;-5.70;100.00;94032.47;2104319;28;20031;-80
2022/02/28 02:20:48;;;;;;;7.30;5.78;;;;;;;-5.54;100.00;94030.31;2095973;28;20035;-81
2022/02/28 02:21:49;;;;;;;8.05;6.18;;;;;;;-5.62;100.00;94029.19;2112741;28;20078;-79
2022/02/28 02:23:04;;;;;;;9.45;5.95;;;;;;;-5.72;100.00;94033.81;2112706;28;20854;-81
2022/02/28 02:24:06;;;;;;;8.02;5.72;;;;;;;-5.90;100.00;94032.84;2116697;27;20040;-82
2022/02/28 02:25:07;;;;;;;7.85;6.18;;;;;;;-5.81;100.00;94033.72;2105060;28;20400;-82
2022/02/28 02:26:14;;;;;;;8.93;5.97;;;;;;;-5.77;100.00;94016.44;2112986;28;20035;-82
2022/02/28 02:27:15;;;;;;;8.40;5.97;;;;;;;-5.74;100.00;94025.53;2113347;28;20480;-81
2022/02/28 02:28:25;;;;;;;7.70;6.30;;;;;;;-5.79;100.00;94021.19;2099316;28;20021;-82
2022/02/28 02:29:26;;;;;;;;;;;;;;;-5.79;100.00;94031.59;2099130;28;20079;-81
2022/02/28 02:30:27;;;;;;;7.30;5.32;;;;;;;-5.81;100.00;94028.50;2104139;28;19912;-79
2022/02/28 02:31:28;;;;;;;8.02;5.60;;;;;;;-5.82;100.00;94027.72;2104227;28;20032;-81
2022/02/28 02:32:29;;;;;;;7.97;6.05;;;;;;;-5.89;100.00;94027.34;2112541;28;20783;-80
2022/02/28 02:33:30;;;;;;;8.25;6.05;;;;;;;-5.85;100.00;94036.13;2112449;28;20043;-80
2022/02/28 02:34:31;;;;;;;9.02;5.55;;;;;;;-5.74;100.00;94035.94;2095913;28;20035;-82
2022/02/28 02:35:32;;;;;;;7.93;5.75;;;;;;;-5.60;100.00;94032.25;2104386;28;20063;-80
2022/02/28 02:36:33;;;;;;;8.25;5.65;;;;;;;-5.54;100.00;94034.75;2112491;28;20337;-80
2022/02/28 02:37:34;;;;;;;9.02;5.70;;;;;;;-5.53;100.00;94041.50;2104084;28;20416;-81
2022/02/28 02:38:37;;;;;;;8.82;5.65;;;;;;;-5.62;100.00;94033.59;2095873;28;20028;-80
2022/02/28 02:39:41;;;;;;;8.80;5.63;;;;;;;-5.78;100.00;94033.13;2096460;28;20029;-82
2022/02/28 02:40:42;;;;;;;9.43;5.90;;;;;;;-5.73;100.00;94038.25;2096566;28;20030;-80
2022/02/28 02:41:43;;;;;;;8.70;6.28;;;;;;;-5.61;100.00;94033.31;2095896;28;20032;-81
2022/02/28 02:42:44;;;;;;;8.60;5.47;;;;;;;-5.59;100.00;94036.38;2096142;28;20090;-79
2022/02/28 02:43:46;;;;;;;7.82;6.15;;;;;;;-5.84;100.00;94031.69;2104554;28;20107;-81
2022/02/28 02:44:47;;;;;;;9.25;5.85;;;;;;;-5.91;100.00;94034.69;2113125;28;20516;-80
2022/02/28 02:45:49;;;;;;;10.75;6.53;;;;;;;-5.95;100.00;94030.38;2112757;28;20089;-82
2022/02/28 02:46:52;;;;;;;7.38;5.93;;;;;;;-6.01;100.00;94029.72;2104210;28;20057;-80
2022/02/28 02:47:53;;;;;;;9.50;6.40;;;;;;;-5.86;100.00;94031.97;2106486;28;20120;-79
2022/02/28 02:48:54;;;;;;;8.95;6.22;;;;;;;-5.89;100.00;94027.34;2112339;28;20194;-80
2022/02/28 02:49:55;;;;;;;9.95;5.72;;;;;;;-5.89;100.00;94023.97;2121213;27;20110;-81
2022/02/28 02:50:56;;;;;;;7.15;5.78;;;;;;;-5.89;100.00;94035.16;2112372;28;20027;-83
2022/02/28 02:51:58;;;;;;;7.63;5.70;;;;;;;-5.78;100.00;94034.97;2104073;28;20061;-81
2022/02/28 02:52:59;;;;;;;6.45;5.75;;;;;;;-6.07;100.00;94036.03;2104131;28;20064;-81
2022/02/28 02:53:59;;;;;;;7.75;5.78;;;;;;;-6.04;100.00;94042.53;2104076;28;20470;-80
2022/02/28 02:55:01;;;;;;;6.95;5.75;;;;;;;-6.02;100.00;94038.56;2104156;28;20028;-81
2022/02/28 02:56:02;;;;;;;6.55;5.15;;;;;;;-6.06;100.00;94039.41;2104000;28;20040;-81
2022/02/28 02:57:06;;;;;;;9.02;6.30;;;;;;;-6.13;100.00;94030.16;2105321;28;20103;-80
2022/02/28 02:58:07;;;;;;;9.38;5.55;;;;;;;-6.03;100.00;94044.06;2112869;28;20507;-82
2022/02/28 02:59:08;;;;;;;7.07;5.30;;;;;;;-5.92;100.00;94032.41;2104369;28;20059;-81
2022/02/28 03:00:10;;;;;;;7.10;5.50;;;;;;;-6.02;100.00;94037.78;2095680;28;20473;-82
2022/02/28 03:01:11;;;;;;;8.88;6.10;;;;;;;-5.99;100.00;94039.81;2100114;28;20012;-81
2022/02/28 03:02:12;;;;;;;7.40;5.28;;;;;;;-5.99;100.00;94035.38;2103945;28;20070;-80
2022/02/28 03:03:19;;;;;;;7.60;5.78;;;;;;;-6.04;100.00;94040.69;2112554;27;20437;-82
2022/02/28 03:04:20;;;;;;;8.93;5.35;;;;;;;-5.98;100.00;94034.31;2113329;28;20555;-82
2022/02/28 03:05:21;;;;;;;8.15;6.25;;;;;;;-5.73;100.00;94037.47;2112484;27;20074;-80
2022/02/28 03:06:24;;;;;;;6.18;5.45;;;;;;;-5.84;100.00;94036.88;2120346;28;20082;-79
2022/02/28 03:07:33;;;;;;;7.20;5.28;;;;;;;-5.88;100.00;94039.31;2103955;28;20028;-82
2022/02/28 03:08:39;;;;;;;6.68;5.28;;;;;;;-5.94;100.00;94037.13;2104628;28;20166;-79
2022/02/28 03:09:46;;;;;;;8.68;5.60;;;;;;;-6.04;100.00;94039.91;2113201;28;20148;-82
2022/02/28 03:10:47;;;;;;;7.20;5.22;;;;;;;-6.05;100.00;94040.97;2111966;28;20030;-81
2022/02/28 03:11:48;;;;;;;8.00;5.70;;;;;;;-6.07;100.00;94038.66;2104103;28;20477;-80
2022/02/28 03:12:49;;;;;;;7.30;5.38;;;;;;;-6.14;100.00;94033.84;2112392;28;20034;-81
2022/02/28 03:13:50;;;;;;;9.43;5.57;;;;;;;-6.22;100.00;94042.31;2112341;28;20031;-79
2022/02/28 03:14:51;;;;;;;10.50;5.55;;;;;;;-6.20;100.00;94036.81;2120532;28;20116;-81
2022/02/28 03:15:52;;;;;;;7.82;6.03;;;;;;;-6.24;100.00;94038.44;2120795;28;20464;-80
2022/02/28 03:16:53;;;;;;;10.15;5.18;;;;;;;-6.22;100.00;94039.72;2112396;28;20027;-82
2022/02/28 03:17:54;;;;;;;8.43;5.30;;;;;;;-6.22;100.00;94037.09;2112101;28;20518;-80
2022/02/28 03:18:55;;;;;;;7.60;5.45;;;;;;;-6.05;100.00;94039.16;2112312;28;20573;-79
2022/02/28 03:19:56;;;;;;;6.80;5.03;;;;;;;-6.13;100.00;94032.78;2112355;28;20107;-81
2022/02/28 03:20:57;;;;;;;7.18;5.20;;;;;;;-6.12;100.00;94047.31;2103769;28;20621;-82
2022/02/28 03:21:59;;;;;;;7.43;5.60;;;;;;;-6.06;100.00;94037.59;2112207;28;20051;-80
2022/02/28 03:23:00;;;;;;;6.18;4.95;;;;;;;-6.27;100.00;94039.81;2097948;28;20434;-81
2022/02/28 03:24:02;;;;;;;7.82;6.07;;;;;;;-6.37;100.00;94038.13;2090503;28;20025;-81
2022/02/28 03:25:04;;;;;;;8.65;5.70;;;;;;;-6.34;100.00;94049.78;2098544;28;20796;-81
2022/02/28 03:26:07;;;;;;;7.28;5.22;;;;;;;-6.38;100.00;94036.59;2097877;28;20477;-80
2022/02/28 03:27:08;;;;;;;6.78;5.35;;;;;;;-6.42;100.00;94047.84;2098616;28;20063;-81
2022/02/28 03:28:09;;;;;;;10.48;5.88;;;;;;;-6.36;100.00;94041.53;2098346;28;20342;-80
2022/02/28 03:29:10;;;;;;;7.30;5.47;;;;;;;-6.19;100.00;94051.34;2089972;28;20025;-82
2022/02/28 03:30:11;;;;;;;9.45;5.30;;;;;;;-6.34;100.00;94047.19;2090154;28;20085;-80
2022/02/28 03:31:12;;;;;;;7.68;5.65;;;;;;;-6.40;100.00;94048.34;2098429;28;20078;-80
2022/02/28 03:32:13;;;;;;;7.10;5.70;;;;;;;-6.41;100.00;94046.78;2089882;28;20154;-80
2022/02/28 03:33:14;;;;;;;7.25;5.50;;;;;;;-6.38;100.00;94049.59;2089719;28;20035;-81
2022/02/28 03:34:15;;;;;;;9.68;5.57;;;;;;;-6.37;100.00;94045.94;2081843;28;20029;-81
2022/02/28 03:35:17;;;;;;;7.68;5.22;;;;;;;-6.42;100.00;94046.00;2089928;28;20025;-80
2022/02/28 03:36:18;;;;;;;6.82;4.95;;;;;;;-6.39;100.00;94052.50;2106782;27;20474;-81
2022/02/28 03:37:19;;;;;;;9.95;5.93;;;;;;;-6.17;100.00;94044.03;2106705;28;20028;-80
2022/02/28 03:38:20;;;;;;;7.70;5.72;;;;;;;-6.01;100.00;94040.13;2098174;28;20027;-80
2022/02/28 03:39:23;;;;;;;8.52;5.80;;;;;;;-6.24;100.00;94049.59;2098090;28;20032;-81
2022/02/28 03:40:24;;;;;;;7.40;5.93;;;;;;;-6.28;100.00;94047.88;2090471;28;20411;-81
2022/02/28 03:41:25;;;;;;;8.32;5.63;;;;;;;-6.26;100.00;94043.94;2089904;28;20116;-79
2022/02/28 03:42:26;;;;;;;7.50;5.53;;;;;;;-6.35;100.00;94037.84;2089973;28;20162;-80
2022/02/28 03:43:27;;;;;;;8.70;5.72;;;;;;;-6.31;100.00;94041.44;2090039;28;20021;-80
2022/02/28 03:44:27;;;;;;;7.85;5.10;;;;;;;-6.34;100.00;94031.59;2098121;28;20024;-81
2022/02/28 03:45:28;;;;;;;9.07;5.57;;;;;;;-6.38;100.00;94035.81;2096328;28;20020;-81
2022/02/28 03:46:30;;;;;;;7.75;5.50;;;;;;;-6.34;100.00;94040.16;2087239;28;20125;-80
2022/02/28 03:47:30;;;;;;;9.48;5.85;;;;;;;-6.35;100.00;94033.41;2090145;28;20112;-80
2022/02/28 03:48:31;;;;;;;7.55;5.82;;;;;;;-6.40;100.00;94035.34;2089771;28;20029;-81
2022/02/28 03:49:32;;;;;;;7.32;5.70;;;;;;;-6.32;100.00;94037.28;2089769;28;20071;-81
2022/02/28 03:50:34;;;;;;;7.10;5.53;;;;;;;-6.49;100.00;94042.28;2089844;28;20037;-81
2022/02/28 03:51:35;;;;;;;8.05;5.47;;;;;;;-6.58;100.00;94039.56;2113478;28;20015;-80
2022/02/28 03:52:36;;;;;;;9.27;5.97;;;;;;;-6.54;100.00;94042.31;2111419;28;20039;-82
2022/02/28 03:53:37;;;;;;;7.82;5.55;;;;;;;-6.43;100.00;94036.69;2097218;28;20477;-80
2022/02/28 03:54:38;;;;;;;9.07;5.80;;;;;;;-6.54;100.00;94039.72;2106358;28;20020;-81
2022/02/28 03:55:39;;;;;;;7.88;5.35;;;;;;;-6.64;100.00;94032.88;2114715;28;20027;-80
2022/02/28 03:56:41;;;;;;;7.07;5.72;;;;;;;-6.63;100.00;94043.00;2098013;28;20073;-82
2022/02/28 03:57:42;;;;;;;7.93;6.15;;;;;;;-6.67;100.00;94038.63;2097619;28;20111;-81
2022/02/28 03:58:43;;;;;;;9.05;5.88;;;;;;;-6.81;100.00;94045.63;2102593;28;20032;-81
2022/02/28 03:59:44;;;;;;;8.23;5.47;;;;;;;-6.55;100.00;94033.00;2102015;28;20139;-82
2022/02/28 04:00:45;;;;;;;8.88;6.22;;;;;;;-6.52;100.00;94035.03;2089849;28;20021;-83
2022/02/28 04:01:46;;;;;;;7.68;5.85;;;;;;;-6.51;100.00;94039.16;2094105;28;20024;-80
2022/02/28 04:02:47;;;;;;;7.90;4.70;;;;;;;-6.44;100.00;94039.56;2098059;28;20055;-82
2022/02/28 04:03:48;;;;;;;10.23;6.20;;;;;;;-6.50;100.00;94041.47;2089629;28;20364;-82
2022/02/28 04:04:49;;;;;;;11.65;5.88;;;;;;;-6.54;100.00;94045.72;2089665;28;20415;-81
2022/02/28 04:05:50;;;;;;;7.38;5.45;;;;;;;-6.52;100.00;94050.63;2106490;28;20032;-81
2022/02/28 04:06:51;;;;;;;9.65;6.15;;;;;;;-6.57;100.00;94043.69;2106358;28;20020;-82
2022/02/28 04:07:52;;;;;;;8.30;6.05;;;;;;;-6.50;100.00;94051.09;2089780;28;20040;-81
2022/02/28 04:08:53;;;;;;;6.47;5.18;;;;;;;-6.62;100.00;94047.13;2097865;28;20055;-79
2022/02/28 04:09:56;;;;;;;9.25;5.72;;;;;;;-6.66;100.00;94043.56;2114985;28;20043;-82
2022/02/28 04:11:03;;;;;;;7.70;5.22;;;;;;;-6.65;100.00;94050.31;2114380;28;20051;-81
2022/02/28 04:12:05;;;;;;;7.57;5.53;;;;;;;-6.68;100.00;94043.06;2098758;28;20416;-81
2022/02/28 04:13:06;;;;;;;11.15;6.07;;;;;;;-6.74;100.00;94048.63;2098174;28;20024;-81
2022/02/28 04:14:07;;;;;;;8.98;5.90;;;;;;;-6.71;100.00;94045.47;2106151;28;20598;-81
2022/02/28 04:15:08;;;;;;;10.98;6.10;;;;;;;-6.71;100.00;94041.06;2097846;28;20024;-80
2022/02/28 04:16:09;;;;;;;7.32;5.57;;;;;;;-6.62;100.00;94043.78;2106164;28;20020;-80
2022/02/28 04:17:10;;;;;;;8.30;5.80;;;;;;;-6.54;100.00;94050.94;2106167;28;20472;-80
2022/02/28 04:18:11;;;;;;;9.93;6.03;;;;;;;-6.53;100.00;94044.66;2087395;28;20017;-80
2022/02/28 04:19:14;;;;;;;8.25;5.88;;;;;;;-6.55;100.00;94038.19;2089571;28;20063;-80
2022/02/28 04:20:15;;;;;;;8.52;5.57;;;;;;;-6.47;100.00;94040.13;2090094;28;20078;-82
2022/02/28 04:21:16;;;;;;;7.60;5.90;;;;;;;-6.55;100.00;94046.75;2097739;28;20028;-81
2022/02/28 04:22:18;;;;;;;10.20;6.20;;;;;;;-6.70;100.00;94039.22;2098141;28;20615;-81
2022/02/28 04:23:19;;;;;;;8.50;5.45;;;;;;;-6.68;100.00;94044.88;2092843;28;20060;-82
2022/02/28 04:34:15;;;;;;;5.70;4.65;;;;;;;-6.75;100.00;94034.09;2105265;28;20024;-81
2022/02/28 04:35:16;;;;;;;7.70;5.72;;;;;;;-6.61;100.00;94040.09;2090548;28;20059;-81
2022/02/28 04:36:17;;;;;;;9.98;6.15;;;;;;;-6.62;100.00;94038.56;2084718;28;20596;-80
2022/02/28 04:37:18;;;;;;;9.73;5.90;;;;;;;-6.56;100.00;94039.25;2097714;28;20446;-79
2022/02/28 04:38:20;;;;;;;11.52;5.93;;;;;;;-6.62;100.00;94034.16;2105992;28;20024;-82
2022/02/28 04:39:21;;;;;;;8.38;5.50;;;;;;;-6.60;100.00;94039.03;2097701;28;20498;-81
2022/02/28 04:40:22;;;;;;;10.75;6.43;;;;;;;-6.64;100.00;94038.06;2088084;28;20584;-79
2022/02/28 04:41:24;;;;;;;7.28;5.72;;;;;;;-6.80;100.00;94042.75;2081115;28;20025;-80
2022/02/28 04:42:25;;;;;;;7.57;5.90;;;;;;;-6.95;100.00;94035.94;2081483;28;20478;-80
2022/02/28 04:43:26;;;;;;;8.18;5.75;;;;;;;-6.92;100.00;94042.41;2089537;28;20021;-81
2022/02/28 04:44:27;;;;;;;7.82;5.85;;;;;;;-6.86;100.00;94043.88;2097411;28;20112;-81
2022/02/28 04:45:28;;;;;;;9.02;6.32;;;;;;;-6.94;100.00;94045.28;2089369;28;20024;-81
2022/02/28 04:46:29;;;;;;;8.55;5.70;;;;;;;-6.96;100.00;94038.84;2097378;28;20086;-81
2022/02/28 04:47:30;;;;;;;8.52;5.78;;;;;;;-6.98;100.00;94035.72;2089153;28;20032;-80
2022/02/28 04:48:31;;;;;;;8.80;6.28;;;;;;;-6.93;100.00;94040.88;2097316;28;20027;-79
2022/02/28 04:49:34;;;;;;;9.98;6.35;;;;;;;-6.86;100.00;94034.25;2097674;28;20037;-80
2022/02/28 04:50:35;;;;;;;7.57;6.13;;;;;;;-6.85;100.00;94033.22;2097367;28;20512;-80
2022/02/28 04:51:36;;;;;;;8.95;6.60;;;;;;;-6.88;100.00;94040.81;2097176;28;20016;-80
2022/02/28 04:52:37;;;;;;;10.35;6.38;;;;;;;-6.92;100.00;94038.00;2105856;28;20357;-80
2022/02/28 04:53:38;;;;;;;11.02;7.18;;;;;;;-7.02;100.00;94045.16;2105994;28;20404;-80
2022/02/28 04:54:39;;;;;;;10.90;7.47;;;;;;;-7.00;100.00;94038.63;2089687;28;20107;-80
2022/02/28 04:55:40;;;;;;;10.93;8.23;;;;;;;-7.08;100.00;94046.28;2080984;28;20049;-81
2022/02/28 04:56:42;;;;;;;9.82;6.32;;;;;;;-7.06;100.00;94046.78;2081038;28;20493;-82
2022/02/28 04:57:44;;;;;;;8.27;6.40;;;;;;;-6.94;100.00;94047.88;2089255;28;20424;-81